sensor_id;sensor_type;location;lat;lon;timestamp;temperature;humidity
9043;DHT22;4556;49.150;8.808;2022-11-20T00:02:18;3.50;99.90
9043;DHT22;4556;49.150;8.808;2022-11-20T00:04:45;3.50;99.90
9043;DHT22;4556;49.150;8.808;2022-11-20T00:07:12;3.50;99.90
9043;DHT22;4556;49.150;8.808;2022-11-20T00:09:39;5.50;99.90
9043;DHT22;4556;49.150;8.808;2022-11-20T00:12:06;3.40;99.90
9043;DHT22;4556;49.150;8.808;2022-11-20T00:14:34;3.30;99.90
9043;DHT22;4556;49.150;8.808;2022-11-20T00:17:01;3.50;99.90
9043;DHT22;4556;49.150;8.808;2022-11-20T00:19:28;4.00;99.90
9043;DHT22;4556;49.150;8.808;2022-11-20T00:21:55;3.40;99.90
9043;DHT22;4556;49.150;8.808;2022-11-20T00:24:22;5.00;99.90
9043;DHT22;4556;49.150;8.808;2022-11-20T00:26:49;3.50;99.90
9043;DHT22;4556;49.150;8.808;2022-11-20T00:29:16;5.10;99.90
9043;DHT22;4556;49.150;8.808;2022-11-20T00:31:44;4.10;99.90
9043;DHT22;4556;49.150;8.808;2022-11-20T00:34:11;4.20;99.90
9043;DHT22;4556;49.150;8.808;2022-11-20T00:36:38;3.60;99.90
9043;DHT22;4556;49.150;8.808;2022-11-20T00:39:05;4.70;99.90
9043;DHT22;4556;49.150;8.808;2022-11-20T00:41:32;3.60;99.90
9043;DHT22;4556;49.150;8.808;2022-11-20T00:43:59;4.70;99.90
9043;DHT22;4556;49.150;8.808;2022-11-20T00:46:27;3.60;99.90
9043;DHT22;4556;49.150;8.808;2022-11-20T00:48:56;5.00;99.90
9043;DHT22;4556;49.150;8.808;2022-11-20T00:51:24;4.10;99.90
9043;DHT22;4556;49.150;8.808;2022-11-20T00:53:54;4.50;99.90
9043;DHT22;4556;49.150;8.808;2022-11-20T00:56:21;6.20;99.90
9043;DHT22;4556;49.150;8.808;2022-11-20T00:58:48;4.50;99.90
9043;DHT22;4556;49.150;8.808;2022-11-20T01:01:17;3.70;99.90
9043;DHT22;4556;49.150;8.808;2022-11-20T01:03:46;4.00;99.90
9043;DHT22;4556;49.150;8.808;2022-11-20T01:06:17;3.90;99.90
9043;DHT22;4556;49.150;8.808;2022-11-20T01:08:45;3.80;99.90
9043;DHT22;4556;49.150;8.808;2022-11-20T01:11:15;5.10;99.90
9043;DHT22;4556;49.150;8.808;2022-11-20T01:13:43;3.80;99.90
9043;DHT22;4556;49.150;8.808;2022-11-20T01:16:12;3.80;99.90
9043;DHT22;4556;49.150;8.808;2022-11-20T01:18:42;3.70;99.90
9043;DHT22;4556;49.150;8.808;2022-11-20T01:21:10;4.70;99.90
9043;DHT22;4556;49.150;8.808;2022-11-20T01:23:41;5.90;99.90
9043;DHT22;4556;49.150;8.808;2022-11-20T01:26:10;5.50;99.90
9043;DHT22;4556;49.150;8.808;2022-11-20T01:28:38;3.60;99.90
9043;DHT22;4556;49.150;8.808;2022-11-20T01:31:11;4.10;99.90
9043;DHT22;4556;49.150;8.808;2022-11-20T01:33:39;4.00;99.90
9043;DHT22;4556;49.150;8.808;2022-11-20T01:36:07;3.90;99.90
9043;DHT22;4556;49.150;8.808;2022-11-20T01:38:34;4.00;99.90
9043;DHT22;4556;49.150;8.808;2022-11-20T01:41:03;5.70;99.90
9043;DHT22;4556;49.150;8.808;2022-11-20T01:43:30;4.40;99.90
9043;DHT22;4556;49.150;8.808;2022-11-20T01:46:08;5.70;99.90
9043;DHT22;4556;49.150;8.808;2022-11-20T01:48:44;4.10;99.90
9043;DHT22;4556;49.150;8.808;2022-11-20T01:51:19;6.10;99.90
9043;DHT22;4556;49.150;8.808;2022-11-20T01:53:48;6.50;99.90
9043;DHT22;4556;49.150;8.808;2022-11-20T01:56:18;6.40;99.90
9043;DHT22;4556;49.150;8.808;2022-11-20T01:58:56;2.70;99.90
9043;DHT22;4556;49.150;8.808;2022-11-20T02:01:24;4.10;99.90
9043;DHT22;4556;49.150;8.808;2022-11-20T02:03:51;4.40;99.90
9043;DHT22;4556;49.150;8.808;2022-11-20T02:06:22;4.30;99.90
9043;DHT22;4556;49.150;8.808;2022-11-20T02:08:51;4.60;99.90
9043;DHT22;4556;49.150;8.808;2022-11-20T02:11:20;6.50;99.90
9043;DHT22;4556;49.150;8.808;2022-11-20T02:13:48;6.30;99.90
9043;DHT22;4556;49.150;8.808;2022-11-20T02:16:17;4.30;99.90
9043;DHT22;4556;49.150;8.808;2022-11-20T02:18:46;5.90;99.90
9043;DHT22;4556;49.150;8.808;2022-11-20T02:21:21;5.80;99.90
9043;DHT22;4556;49.150;8.808;2022-11-20T02:24:06;6.70;99.90
9043;DHT22;4556;49.150;8.808;2022-11-20T02:26:38;4.40;99.90
9043;DHT22;4556;49.150;8.808;2022-11-20T02:29:07;4.30;99.90
9043;DHT22;4556;49.150;8.808;2022-11-20T02:31:37;4.40;99.90
9043;DHT22;4556;49.150;8.808;2022-11-20T02:34:05;4.30;99.90
9043;DHT22;4556;49.150;8.808;2022-11-20T02:36:33;4.70;99.90
9043;DHT22;4556;49.150;8.808;2022-11-20T02:39:01;6.30;99.90
9043;DHT22;4556;49.150;8.808;2022-11-20T02:41:33;4.50;99.90
9043;DHT22;4556;49.150;8.808;2022-11-20T02:44:01;5.40;99.90
9043;DHT22;4556;49.150;8.808;2022-11-20T02:46:28;5.40;99.90
9043;DHT22;4556;49.150;8.808;2022-11-20T02:48:55;4.60;99.90
9043;DHT22;4556;49.150;8.808;2022-11-20T02:51:22;6.60;99.90
9043;DHT22;4556;49.150;8.808;2022-11-20T02:53:50;4.70;99.90
9043;DHT22;4556;49.150;8.808;2022-11-20T02:56:17;6.00;99.90
9043;DHT22;4556;49.150;8.808;2022-11-20T02:58:47;5.40;99.90
9043;DHT22;4556;49.150;8.808;2022-11-20T03:01:14;5.70;99.90
9043;DHT22;4556;49.150;8.808;2022-11-20T03:03:41;6.50;99.90
9043;DHT22;4556;49.150;8.808;2022-11-20T03:06:08;5.70;99.90
9043;DHT22;4556;49.150;8.808;2022-11-20T03:08:35;6.50;99.90
9043;DHT22;4556;49.150;8.808;2022-11-20T03:11:04;6.40;99.90
9043;DHT22;4556;49.150;8.808;2022-11-20T03:13:31;5.00;99.90
9043;DHT22;4556;49.150;8.808;2022-11-20T03:16:05;5.10;99.90
9043;DHT22;4556;49.150;8.808;2022-11-20T03:18:32;5.00;99.90
9043;DHT22;4556;49.150;8.808;2022-11-20T03:20:59;5.00;99.90
9043;DHT22;4556;49.150;8.808;2022-11-20T03:23:29;6.90;99.90
9043;DHT22;4556;49.150;8.808;2022-11-20T03:25:56;5.00;99.90
9043;DHT22;4556;49.150;8.808;2022-11-20T03:28:33;5.10;99.90
9043;DHT22;4556;49.150;8.808;2022-11-20T03:31:10;5.90;99.90
9043;DHT22;4556;49.150;8.808;2022-11-20T03:33:37;5.50;99.90
9043;DHT22;4556;49.150;8.808;2022-11-20T03:36:06;5.60;99.90
9043;DHT22;4556;49.150;8.808;2022-11-20T03:38:35;5.70;99.90
9043;DHT22;4556;49.150;8.808;2022-11-20T03:41:03;6.50;99.90
9043;DHT22;4556;49.150;8.808;2022-11-20T03:43:31;5.80;99.90
9043;DHT22;4556;49.150;8.808;2022-11-20T03:45:58;5.80;99.90
9043;DHT22;4556;49.150;8.808;2022-11-20T03:48:29;6.10;99.90
9043;DHT22;4556;49.150;8.808;2022-11-20T03:51:07;5.90;99.90
9043;DHT22;4556;49.150;8.808;2022-11-20T03:53:34;8.20;99.90
9043;DHT22;4556;49.150;8.808;2022-11-20T03:56:02;6.00;99.90
9043;DHT22;4556;49.150;8.808;2022-11-20T03:58:29;6.00;99.90
9043;DHT22;4556;49.150;8.808;2022-11-20T04:00:56;6.10;99.90
9043;DHT22;4556;49.150;8.808;2022-11-20T04:03:23;8.20;99.90
9043;DHT22;4556;49.150;8.808;2022-11-20T04:05:52;7.40;99.90
9043;DHT22;4556;49.150;8.808;2022-11-20T04:08:18;7.00;99.90
9043;DHT22;4556;49.150;8.808;2022-11-20T04:10:45;6.70;99.90
9043;DHT22;4556;49.150;8.808;2022-11-20T04:13:12;6.00;99.90
9043;DHT22;4556;49.150;8.808;2022-11-20T04:15:39;8.50;99.90
9043;DHT22;4556;49.150;8.808;2022-11-20T04:18:06;4.30;99.90
9043;DHT22;4556;49.150;8.808;2022-11-20T04:20:33;6.10;99.90
9043;DHT22;4556;49.150;8.808;2022-11-20T04:23:02;6.10;99.90
9043;DHT22;4556;49.150;8.808;2022-11-20T04:25:28;7.60;99.90
9043;DHT22;4556;49.150;8.808;2022-11-20T04:27:55;6.80;99.90
9043;DHT22;4556;49.150;8.808;2022-11-20T04:30:22;6.10;99.90
9043;DHT22;4556;49.150;8.808;2022-11-20T04:32:49;6.80;99.90
9043;DHT22;4556;49.150;8.808;2022-11-20T04:35:16;6.70;99.90
9043;DHT22;4556;49.150;8.808;2022-11-20T04:37:43;6.10;99.90
9043;DHT22;4556;49.150;8.808;2022-11-20T04:40:12;7.30;99.90
9043;DHT22;4556;49.150;8.808;2022-11-20T04:42:39;5.30;99.90
9043;DHT22;4556;49.150;8.808;2022-11-20T04:45:06;6.50;99.90
9043;DHT22;4556;49.150;8.808;2022-11-20T04:47:33;6.20;99.90
9043;DHT22;4556;49.150;8.808;2022-11-20T04:50:00;6.10;99.90
9043;DHT22;4556;49.150;8.808;2022-11-20T04:52:27;6.20;99.90
9043;DHT22;4556;49.150;8.808;2022-11-20T04:54:54;8.30;99.90
9043;DHT22;4556;49.150;8.808;2022-11-20T04:57:22;6.70;99.90
9043;DHT22;4556;49.150;8.808;2022-11-20T04:59:49;6.40;99.90
9043;DHT22;4556;49.150;8.808;2022-11-20T05:02:16;6.20;99.90
9043;DHT22;4556;49.150;8.808;2022-11-20T05:04:43;6.60;99.90
9043;DHT22;4556;49.150;8.808;2022-11-20T05:07:10;6.30;99.90
9043;DHT22;4556;49.150;8.808;2022-11-20T05:09:37;6.20;99.90
9043;DHT22;4556;49.150;8.808;2022-11-20T05:12:07;7.30;99.90
9043;DHT22;4556;49.150;8.808;2022-11-20T05:14:35;7.50;99.90
9043;DHT22;4556;49.150;8.808;2022-11-20T05:17:02;6.80;99.90
9043;DHT22;4556;49.150;8.808;2022-11-20T05:19:29;6.30;99.90
9043;DHT22;4556;49.150;8.808;2022-11-20T05:21:56;7.00;99.90
9043;DHT22;4556;49.150;8.808;2022-11-20T05:24:23;7.10;99.90
9043;DHT22;4556;49.150;8.808;2022-11-20T05:26:50;6.40;99.90
9043;DHT22;4556;49.150;8.808;2022-11-20T05:29:17;6.30;99.90
9043;DHT22;4556;49.150;8.808;2022-11-20T05:31:46;8.10;99.90
9043;DHT22;4556;49.150;8.808;2022-11-20T05:34:12;8.80;99.90
9043;DHT22;4556;49.150;8.808;2022-11-20T05:36:40;6.40;99.90
9043;DHT22;4556;49.150;8.808;2022-11-20T05:39:06;7.60;99.90
9043;DHT22;4556;49.150;8.808;2022-11-20T05:41:33;6.40;99.90
9043;DHT22;4556;49.150;8.808;2022-11-20T05:44:00;8.20;99.90
9043;DHT22;4556;49.150;8.808;2022-11-20T05:46:27;8.90;99.90
9043;DHT22;4556;49.150;8.808;2022-11-20T05:48:57;6.40;99.90
9043;DHT22;4556;49.150;8.808;2022-11-20T05:51:25;6.40;99.90
9043;DHT22;4556;49.150;8.808;2022-11-20T05:53:52;6.30;99.90
9043;DHT22;4556;49.150;8.808;2022-11-20T05:56:20;7.90;99.90
9043;DHT22;4556;49.150;8.808;2022-11-20T05:58:48;6.90;99.90
9043;DHT22;4556;49.150;8.808;2022-11-20T06:01:17;6.40;99.90
9043;DHT22;4556;49.150;8.808;2022-11-20T06:03:44;6.40;99.90
9043;DHT22;4556;49.150;8.808;2022-11-20T06:06:15;6.40;99.90
9043;DHT22;4556;49.150;8.808;2022-11-20T06:08:43;6.40;99.90
9043;DHT22;4556;49.150;8.808;2022-11-20T06:11:11;6.40;99.90
9043;DHT22;4556;49.150;8.808;2022-11-20T06:13:38;6.70;99.90
9043;DHT22;4556;49.150;8.808;2022-11-20T06:16:06;7.50;99.90
9043;DHT22;4556;49.150;8.808;2022-11-20T06:18:33;6.40;99.90
9043;DHT22;4556;49.150;8.808;2022-11-20T06:21:01;6.40;99.90
9043;DHT22;4556;49.150;8.808;2022-11-20T06:23:31;7.70;99.90
9043;DHT22;4556;49.150;8.808;2022-11-20T06:26:01;6.40;99.90
9043;DHT22;4556;49.150;8.808;2022-11-20T06:28:31;6.60;99.90
9043;DHT22;4556;49.150;8.808;2022-11-20T06:30:58;7.40;99.90
9043;DHT22;4556;49.150;8.808;2022-11-20T06:33:25;6.50;99.90
9043;DHT22;4556;49.150;8.808;2022-11-20T06:35:55;7.10;99.90
9043;DHT22;4556;49.150;8.808;2022-11-20T06:38:22;6.30;99.90
9043;DHT22;4556;49.150;8.808;2022-11-20T06:40:50;6.40;99.90
9043;DHT22;4556;49.150;8.808;2022-11-20T06:43:18;6.90;99.90
9043;DHT22;4556;49.150;8.808;2022-11-20T06:45:44;6.30;99.90
9043;DHT22;4556;49.150;8.808;2022-11-20T06:48:11;6.90;99.90
9043;DHT22;4556;49.150;8.808;2022-11-20T06:50:38;6.30;99.90
9043;DHT22;4556;49.150;8.808;2022-11-20T06:53:05;8.80;99.90
9043;DHT22;4556;49.150;8.808;2022-11-20T06:55:32;5.70;99.90
9043;DHT22;4556;49.150;8.808;2022-11-20T06:58:01;6.30;99.90
9043;DHT22;4556;49.150;8.808;2022-11-20T07:00:28;6.50;99.90
9043;DHT22;4556;49.150;8.808;2022-11-20T07:02:54;8.10;99.90
9043;DHT22;4556;49.150;8.808;2022-11-20T07:05:21;6.30;99.90
9043;DHT22;4556;49.150;8.808;2022-11-20T07:07:48;7.30;99.90
9043;DHT22;4556;49.150;8.808;2022-11-20T07:10:15;7.20;99.90
9043;DHT22;4556;49.150;8.808;2022-11-20T07:12:42;7.60;99.90
9043;DHT22;4556;49.150;8.808;2022-11-20T07:15:10;6.40;99.90
9043;DHT22;4556;49.150;8.808;2022-11-20T07:17:37;8.60;99.90
9043;DHT22;4556;49.150;8.808;2022-11-20T07:20:05;6.40;99.90
9043;DHT22;4556;49.150;8.808;2022-11-20T07:22:32;5.20;99.90
9043;DHT22;4556;49.150;8.808;2022-11-20T07:24:59;6.40;99.90
9043;DHT22;4556;49.150;8.808;2022-11-20T07:27:27;6.40;99.90
9043;DHT22;4556;49.150;8.808;2022-11-20T07:29:54;6.50;99.90
9043;DHT22;4556;49.150;8.808;2022-11-20T07:32:22;6.40;99.90
9043;DHT22;4556;49.150;8.808;2022-11-20T07:34:49;6.40;99.90
9043;DHT22;4556;49.150;8.808;2022-11-20T07:37:17;5.10;99.90
9043;DHT22;4556;49.150;8.808;2022-11-20T07:39:44;6.50;99.90
9043;DHT22;4556;49.150;8.808;2022-11-20T07:42:11;6.50;99.90
9043;DHT22;4556;49.150;8.808;2022-11-20T07:44:38;7.60;99.90
9043;DHT22;4556;49.150;8.808;2022-11-20T07:47:06;6.70;99.90
9043;DHT22;4556;49.150;8.808;2022-11-20T07:49:34;7.70;99.90
9043;DHT22;4556;49.150;8.808;2022-11-20T07:52:01;6.70;99.90
9043;DHT22;4556;49.150;8.808;2022-11-20T07:54:28;6.50;99.90
9043;DHT22;4556;49.150;8.808;2022-11-20T07:56:58;6.50;99.90
9043;DHT22;4556;49.150;8.808;2022-11-20T07:59:25;7.70;99.90
9043;DHT22;4556;49.150;8.808;2022-11-20T08:01:52;6.70;99.90
9043;DHT22;4556;49.150;8.808;2022-11-20T08:04:19;8.60;99.90
9043;DHT22;4556;49.150;8.808;2022-11-20T08:06:48;6.40;99.90
9043;DHT22;4556;49.150;8.808;2022-11-20T08:09:15;9.10;99.90
9043;DHT22;4556;49.150;8.808;2022-11-20T08:11:42;6.50;99.90
9043;DHT22;4556;49.150;8.808;2022-11-20T08:14:26;6.50;99.90
9043;DHT22;4556;49.150;8.808;2022-11-20T08:16:53;6.50;99.90
9043;DHT22;4556;49.150;8.808;2022-11-20T08:19:21;8.10;99.90
9043;DHT22;4556;49.150;8.808;2022-11-20T08:21:50;6.50;99.90
9043;DHT22;4556;49.150;8.808;2022-11-20T08:24:17;6.50;99.90
9043;DHT22;4556;49.150;8.808;2022-11-20T08:26:44;8.20;99.90
9043;DHT22;4556;49.150;8.808;2022-11-20T08:29:11;8.30;99.90
9043;DHT22;4556;49.150;8.808;2022-11-20T08:31:38;7.60;99.90
9043;DHT22;4556;49.150;8.808;2022-11-20T08:34:05;8.10;99.90
9043;DHT22;4556;49.150;8.808;2022-11-20T08:36:33;6.70;99.90
9043;DHT22;4556;49.150;8.808;2022-11-20T08:39:03;6.50;99.90
9043;DHT22;4556;49.150;8.808;2022-11-20T08:41:30;6.50;99.90
9043;DHT22;4556;49.150;8.808;2022-11-20T08:44:00;6.50;99.90
9043;DHT22;4556;49.150;8.808;2022-11-20T08:46:30;6.50;99.90
9043;DHT22;4556;49.150;8.808;2022-11-20T08:49:00;7.50;99.90
9043;DHT22;4556;49.150;8.808;2022-11-20T08:51:26;6.50;99.90
9043;DHT22;4556;49.150;8.808;2022-11-20T08:53:54;9.10;99.90
9043;DHT22;4556;49.150;8.808;2022-11-20T08:56:22;6.40;99.90
9043;DHT22;4556;49.150;8.808;2022-11-20T08:58:50;6.60;99.90
9043;DHT22;4556;49.150;8.808;2022-11-20T09:01:17;6.70;99.90
9043;DHT22;4556;49.150;8.808;2022-11-20T09:03:44;8.90;99.90
9043;DHT22;4556;49.150;8.808;2022-11-20T09:06:12;6.90;99.90
9043;DHT22;4556;49.150;8.808;2022-11-20T09:08:39;7.70;99.90
9043;DHT22;4556;49.150;8.808;2022-11-20T09:11:06;6.80;99.90
9043;DHT22;4556;49.150;8.808;2022-11-20T09:13:35;6.80;99.90
9043;DHT22;4556;49.150;8.808;2022-11-20T09:16:04;6.90;99.90
9043;DHT22;4556;49.150;8.808;2022-11-20T09:18:32;6.80;99.90
9043;DHT22;4556;49.150;8.808;2022-11-20T09:21:00;6.80;99.90
9043;DHT22;4556;49.150;8.808;2022-11-20T09:23:31;6.80;99.90
9043;DHT22;4556;49.150;8.808;2022-11-20T09:26:01;6.90;99.90
9043;DHT22;4556;49.150;8.808;2022-11-20T09:28:29;7.10;99.90
9043;DHT22;4556;49.150;8.808;2022-11-20T09:30:58;8.40;99.90
9043;DHT22;4556;49.150;8.808;2022-11-20T09:33:25;7.20;99.90
9043;DHT22;4556;49.150;8.808;2022-11-20T09:35:52;7.10;99.90
9043;DHT22;4556;49.150;8.808;2022-11-20T09:38:19;7.20;99.90
9043;DHT22;4556;49.150;8.808;2022-11-20T09:40:51;8.70;99.90
9043;DHT22;4556;49.150;8.808;2022-11-20T09:43:26;7.10;99.90
9043;DHT22;4556;49.150;8.808;2022-11-20T09:46:04;7.10;99.90
9043;DHT22;4556;49.150;8.808;2022-11-20T09:48:42;7.20;99.90
9043;DHT22;4556;49.150;8.808;2022-11-20T09:51:20;7.20;99.90
9043;DHT22;4556;49.150;8.808;2022-11-20T09:54:03;7.30;99.90
9043;DHT22;4556;49.150;8.808;2022-11-20T09:56:33;8.60;99.90
9043;DHT22;4556;49.150;8.808;2022-11-20T09:59:05;9.30;99.90
9043;DHT22;4556;49.150;8.808;2022-11-20T10:01:36;7.30;99.90
9043;DHT22;4556;49.150;8.808;2022-11-20T10:04:10;7.30;99.90
9043;DHT22;4556;49.150;8.808;2022-11-20T10:06:44;7.30;99.90
9043;DHT22;4556;49.150;8.808;2022-11-20T10:09:22;7.40;99.90
9043;DHT22;4556;49.150;8.808;2022-11-20T10:11:56;7.40;99.90
9043;DHT22;4556;49.150;8.808;2022-11-20T10:14:31;7.30;99.90
9043;DHT22;4556;49.150;8.808;2022-11-20T10:17:11;7.30;99.90
9043;DHT22;4556;49.150;8.808;2022-11-20T10:19:52;7.30;99.90
9043;DHT22;4556;49.150;8.808;2022-11-20T10:22:35;8.10;99.90
9043;DHT22;4556;49.150;8.808;2022-11-20T10:25:09;7.60;99.90
9043;DHT22;4556;49.150;8.808;2022-11-20T10:27:56;7.20;99.90
9043;DHT22;4556;49.150;8.808;2022-11-20T10:30:27;7.20;99.90
9043;DHT22;4556;49.150;8.808;2022-11-20T10:33:04;7.30;99.90
9043;DHT22;4556;49.150;8.808;2022-11-20T10:35:35;7.30;99.90
9043;DHT22;4556;49.150;8.808;2022-11-20T10:38:05;7.40;99.90
9043;DHT22;4556;49.150;8.808;2022-11-20T10:40:37;7.30;99.90
9043;DHT22;4556;49.150;8.808;2022-11-20T10:43:10;7.30;99.90
9043;DHT22;4556;49.150;8.808;2022-11-20T10:45:47;7.40;99.90
9043;DHT22;4556;49.150;8.808;2022-11-20T10:48:21;7.40;99.90
9043;DHT22;4556;49.150;8.808;2022-11-20T10:50:59;8.80;99.90
9043;DHT22;4556;49.150;8.808;2022-11-20T10:53:55;7.30;99.90
9043;DHT22;4556;49.150;8.808;2022-11-20T10:56:29;7.80;99.90
9043;DHT22;4556;49.150;8.808;2022-11-20T10:59:10;7.30;99.90
9043;DHT22;4556;49.150;8.808;2022-11-20T11:01:40;8.20;99.90
9043;DHT22;4556;49.150;8.808;2022-11-20T11:04:21;7.30;99.90
9043;DHT22;4556;49.150;8.808;2022-11-20T11:06:51;8.20;99.90
9043;DHT22;4556;49.150;8.808;2022-11-20T11:09:27;7.50;99.90
9043;DHT22;4556;49.150;8.808;2022-11-20T11:11:57;7.40;99.90
9043;DHT22;4556;49.150;8.808;2022-11-20T11:14:24;7.40;99.90
9043;DHT22;4556;49.150;8.808;2022-11-20T11:16:52;7.50;99.90
9043;DHT22;4556;49.150;8.808;2022-11-20T11:19:20;7.60;99.90
9043;DHT22;4556;49.150;8.808;2022-11-20T11:21:49;7.60;99.90
9043;DHT22;4556;49.150;8.808;2022-11-20T11:24:20;7.60;99.90
9043;DHT22;4556;49.150;8.808;2022-11-20T11:26:53;7.60;99.90
9043;DHT22;4556;49.150;8.808;2022-11-20T11:29:22;8.90;99.90
9043;DHT22;4556;49.150;8.808;2022-11-20T11:31:49;7.70;99.90
9043;DHT22;4556;49.150;8.808;2022-11-20T11:34:17;8.60;99.90
9043;DHT22;4556;49.150;8.808;2022-11-20T11:36:57;7.90;99.90
9043;DHT22;4556;49.150;8.808;2022-11-20T11:39:26;8.00;99.90
9043;DHT22;4556;49.150;8.808;2022-11-20T11:41:53;8.10;99.90
9043;DHT22;4556;49.150;8.808;2022-11-20T11:44:22;8.10;99.90
9043;DHT22;4556;49.150;8.808;2022-11-20T11:47:11;8.10;99.90
9043;DHT22;4556;49.150;8.808;2022-11-20T11:49:38;8.10;99.90
9043;DHT22;4556;49.150;8.808;2022-11-20T11:52:12;8.00;99.90
9043;DHT22;4556;49.150;8.808;2022-11-20T11:54:45;8.00;99.90
9043;DHT22;4556;49.150;8.808;2022-11-20T11:57:16;7.90;99.90
9043;DHT22;4556;49.150;8.808;2022-11-20T11:59:54;7.90;99.90
9043;DHT22;4556;49.150;8.808;2022-11-20T12:02:31;7.90;99.90
9043;DHT22;4556;49.150;8.808;2022-11-20T12:05:06;7.90;99.90
9043;DHT22;4556;49.150;8.808;2022-11-20T12:07:41;7.90;99.90
9043;DHT22;4556;49.150;8.808;2022-11-20T12:10:15;8.30;99.90
9043;DHT22;4556;49.150;8.808;2022-11-20T12:12:51;7.80;99.90
9043;DHT22;4556;49.150;8.808;2022-11-20T12:15:26;7.80;99.90
9043;DHT22;4556;49.150;8.808;2022-11-20T12:17:55;7.90;99.90
9043;DHT22;4556;49.150;8.808;2022-11-20T12:20:27;8.10;99.90
9043;DHT22;4556;49.150;8.808;2022-11-20T12:23:01;8.20;99.90
9043;DHT22;4556;49.150;8.808;2022-11-20T12:25:34;8.50;99.90
9043;DHT22;4556;49.150;8.808;2022-11-20T12:28:23;8.30;99.90
9043;DHT22;4556;49.150;8.808;2022-11-20T12:31:13;8.20;99.90
9043;DHT22;4556;49.150;8.808;2022-11-20T12:33:53;8.20;99.90
9043;DHT22;4556;49.150;8.808;2022-11-20T12:36:30;8.10;99.90
9043;DHT22;4556;49.150;8.808;2022-11-20T12:39:23;8.10;99.90
9043;DHT22;4556;49.150;8.808;2022-11-20T12:42:05;8.00;99.90
9043;DHT22;4556;49.150;8.808;2022-11-20T12:45:04;8.10;99.90
9043;DHT22;4556;49.150;8.808;2022-11-20T12:47:48;7.90;99.90
9043;DHT22;4556;49.150;8.808;2022-11-20T12:50:26;8.00;99.90
9043;DHT22;4556;49.150;8.808;2022-11-20T12:52:57;8.00;99.90
9043;DHT22;4556;49.150;8.808;2022-11-20T12:55:47;8.10;99.90
9043;DHT22;4556;49.150;8.808;2022-11-20T12:58:23;8.10;99.90
9043;DHT22;4556;49.150;8.808;2022-11-20T13:00:56;8.80;99.90
9043;DHT22;4556;49.150;8.808;2022-11-20T13:03:42;8.20;99.90
9043;DHT22;4556;49.150;8.808;2022-11-20T13:06:15;9.50;99.90
9043;DHT22;4556;49.150;8.808;2022-11-20T13:08:45;8.20;99.90
9043;DHT22;4556;49.150;8.808;2022-11-20T13:11:20;9.60;99.90
9043;DHT22;4556;49.150;8.808;2022-11-20T13:14:09;8.60;99.90
9043;DHT22;4556;49.150;8.808;2022-11-20T13:16:42;8.70;99.90
9043;DHT22;4556;49.150;8.808;2022-11-20T13:19:12;8.60;99.90
9043;DHT22;4556;49.150;8.808;2022-11-20T13:21:42;8.10;99.90
9043;DHT22;4556;49.150;8.808;2022-11-20T13:24:22;8.50;99.90
9043;DHT22;4556;49.150;8.808;2022-11-20T13:27:02;8.60;99.90
9043;DHT22;4556;49.150;8.808;2022-11-20T13:29:29;8.90;99.90
9043;DHT22;4556;49.150;8.808;2022-11-20T13:32:03;9.20;99.90
9043;DHT22;4556;49.150;8.808;2022-11-20T13:34:31;8.20;99.90
9043;DHT22;4556;49.150;8.808;2022-11-20T13:36:59;10.10;99.90
9043;DHT22;4556;49.150;8.808;2022-11-20T13:39:31;8.10;99.90
9043;DHT22;4556;49.150;8.808;2022-11-20T13:42:01;8.10;99.90
9043;DHT22;4556;49.150;8.808;2022-11-20T13:44:33;8.10;99.90
9043;DHT22;4556;49.150;8.808;2022-11-20T13:47:04;8.10;99.90
9043;DHT22;4556;49.150;8.808;2022-11-20T13:49:32;8.00;99.90
9043;DHT22;4556;49.150;8.808;2022-11-20T13:52:20;8.00;99.90
9043;DHT22;4556;49.150;8.808;2022-11-20T13:55:02;8.10;99.90
9043;DHT22;4556;49.150;8.808;2022-11-20T13:57:56;8.00;99.90
9043;DHT22;4556;49.150;8.808;2022-11-20T14:00:26;8.00;99.90
9043;DHT22;4556;49.150;8.808;2022-11-20T14:03:09;8.70;99.90
9043;DHT22;4556;49.150;8.808;2022-11-20T14:05:40;8.10;99.90
9043;DHT22;4556;49.150;8.808;2022-11-20T14:08:23;8.00;99.90
9043;DHT22;4556;49.150;8.808;2022-11-20T14:10:51;7.90;99.90
9043;DHT22;4556;49.150;8.808;2022-11-20T14:13:20;7.90;99.90
9043;DHT22;4556;49.150;8.808;2022-11-20T14:15:47;7.80;99.90
9043;DHT22;4556;49.150;8.808;2022-11-20T14:18:18;7.80;99.90
9043;DHT22;4556;49.150;8.808;2022-11-20T14:20:46;7.90;99.90
9043;DHT22;4556;49.150;8.808;2022-11-20T14:23:24;7.90;99.90
9043;DHT22;4556;49.150;8.808;2022-11-20T14:25:51;8.00;99.90
9043;DHT22;4556;49.150;8.808;2022-11-20T14:28:25;8.10;99.90
9043;DHT22;4556;49.150;8.808;2022-11-20T14:30:53;9.00;99.90
9043;DHT22;4556;49.150;8.808;2022-11-20T14:33:20;9.00;99.90
9043;DHT22;4556;49.150;8.808;2022-11-20T14:35:52;8.00;99.90
9043;DHT22;4556;49.150;8.808;2022-11-20T14:38:23;8.20;99.90
9043;DHT22;4556;49.150;8.808;2022-11-20T14:40:51;8.20;99.90
9043;DHT22;4556;49.150;8.808;2022-11-20T14:43:23;8.00;99.90
9043;DHT22;4556;49.150;8.808;2022-11-20T14:45:56;8.10;99.90
9043;DHT22;4556;49.150;8.808;2022-11-20T14:48:29;8.00;99.90
9043;DHT22;4556;49.150;8.808;2022-11-20T14:50:57;9.70;99.90
9043;DHT22;4556;49.150;8.808;2022-11-20T14:53:24;7.80;99.90
9043;DHT22;4556;49.150;8.808;2022-11-20T14:55:57;7.80;99.90
9043;DHT22;4556;49.150;8.808;2022-11-20T14:58:28;7.60;99.90
9043;DHT22;4556;49.150;8.808;2022-11-20T15:00:57;7.70;99.90
9043;DHT22;4556;49.150;8.808;2022-11-20T15:03:31;7.60;99.90
9043;DHT22;4556;49.150;8.808;2022-11-20T15:05:59;7.50;99.90
9043;DHT22;4556;49.150;8.808;2022-11-20T15:08:26;7.40;99.90
9043;DHT22;4556;49.150;8.808;2022-11-20T15:10:53;7.30;99.90
9043;DHT22;4556;49.150;8.808;2022-11-20T15:13:29;7.30;99.90
9043;DHT22;4556;49.150;8.808;2022-11-20T15:15:57;7.20;99.90
9043;DHT22;4556;49.150;8.808;2022-11-20T15:18:28;7.20;99.90
9043;DHT22;4556;49.150;8.808;2022-11-20T15:20:58;7.30;99.90
9043;DHT22;4556;49.150;8.808;2022-11-20T15:23:27;7.30;99.90
9043;DHT22;4556;49.150;8.808;2022-11-20T15:25:55;8.40;99.90
9043;DHT22;4556;49.150;8.808;2022-11-20T15:28:29;7.60;99.90
9043;DHT22;4556;49.150;8.808;2022-11-20T15:30:57;7.10;99.90
9043;DHT22;4556;49.150;8.808;2022-11-20T15:33:24;7.20;99.90
9043;DHT22;4556;49.150;8.808;2022-11-20T15:35:51;7.10;99.90
9043;DHT22;4556;49.150;8.808;2022-11-20T15:38:18;7.30;99.90
9043;DHT22;4556;49.150;8.808;2022-11-20T15:40:45;7.10;99.90
9043;DHT22;4556;49.150;8.808;2022-11-20T15:43:12;7.00;99.90
9043;DHT22;4556;49.150;8.808;2022-11-20T15:45:43;7.10;99.90
9043;DHT22;4556;49.150;8.808;2022-11-20T15:48:13;6.90;99.90
9043;DHT22;4556;49.150;8.808;2022-11-20T15:50:47;7.00;99.90
9043;DHT22;4556;49.150;8.808;2022-11-20T15:53:16;7.00;99.90
9043;DHT22;4556;49.150;8.808;2022-11-20T15:55:43;7.00;99.90
9043;DHT22;4556;49.150;8.808;2022-11-20T15:58:10;7.00;99.90
9043;DHT22;4556;49.150;8.808;2022-11-20T16:00:38;6.90;99.90
9043;DHT22;4556;49.150;8.808;2022-11-20T16:03:08;6.80;99.90
9043;DHT22;4556;49.150;8.808;2022-11-20T16:05:35;6.80;99.90
9043;DHT22;4556;49.150;8.808;2022-11-20T16:08:02;7.70;99.90
9043;DHT22;4556;49.150;8.808;2022-11-20T16:10:29;6.90;99.90
9043;DHT22;4556;49.150;8.808;2022-11-20T16:12:56;8.30;99.90
9043;DHT22;4556;49.150;8.808;2022-11-20T16:15:41;7.30;99.90
9043;DHT22;4556;49.150;8.808;2022-11-20T16:18:16;6.80;99.90
9043;DHT22;4556;49.150;8.808;2022-11-20T16:20:44;8.40;99.90
9043;DHT22;4556;49.150;8.808;2022-11-20T16:23:12;6.30;99.90
9043;DHT22;4556;49.150;8.808;2022-11-20T16:25:40;7.00;99.90
9043;DHT22;4556;49.150;8.808;2022-11-20T16:28:07;7.60;99.90
9043;DHT22;4556;49.150;8.808;2022-11-20T16:30:35;7.90;99.90
9043;DHT22;4556;49.150;8.808;2022-11-20T16:33:03;6.80;99.90
9043;DHT22;4556;49.150;8.808;2022-11-20T16:35:31;8.00;99.90
9043;DHT22;4556;49.150;8.808;2022-11-20T16:37:58;7.50;99.90